createdAt,value
2018-12-05T00:01:11.693Z,11.67
2018-12-05T00:04:15.188Z,11.60
2018-12-05T00:07:18.823Z,11.73
2018-12-05T00:10:22.672Z,12.57
2018-12-05T00:13:26.243Z,11.60
2018-12-05T00:16:29.796Z,12.27
2018-12-05T00:19:33.351Z,10.80
2018-12-05T00:22:36.781Z,12.37
2018-12-05T00:25:40.380Z,12.03
2018-12-05T00:28:43.798Z,13.63
2018-12-05T00:31:47.419Z,12.50
2018-12-05T00:34:51.181Z,12.67
2018-12-05T00:37:54.776Z,15.07
2018-12-05T00:40:58.434Z,13.03
2018-12-05T00:44:02.138Z,11.77
2018-12-05T00:47:05.947Z,10.30
2018-12-05T00:50:09.655Z,12.33
2018-12-05T00:53:13.224Z,8.87
2018-12-05T00:56:16.711Z,12.63
2018-12-05T00:59:20.316Z,10.33
2018-12-05T01:02:23.986Z,11.03
2018-12-05T01:05:28.586Z,10.83
2018-12-05T01:08:33.192Z,10.47
2018-12-05T01:11:36.718Z,11.83
2018-12-05T01:14:40.324Z,10.53
2018-12-05T01:17:43.899Z,7.77
2018-12-05T01:20:47.500Z,9.87
2018-12-05T01:23:51.358Z,10.47
2018-12-05T01:26:54.971Z,10.90
2018-12-05T01:29:58.538Z,9.27
2018-12-05T01:33:02.092Z,9.80
2018-12-05T01:36:05.789Z,10.80
2018-12-05T01:39:09.512Z,8.97
2018-12-05T01:42:13.117Z,10.80
2018-12-05T01:45:16.692Z,9.33
2018-12-05T01:48:20.260Z,10.53
2018-12-05T01:51:23.918Z,9.27
2018-12-05T01:54:27.522Z,9.07
2018-12-05T01:57:31.168Z,9.40
2018-12-05T02:00:34.960Z,11.20
2018-12-05T02:03:38.525Z,10.47
2018-12-05T02:06:42.063Z,10.07
2018-12-05T02:09:47.885Z,11.87
2018-12-05T02:12:51.442Z,8.53
2018-12-05T02:15:55.117Z,9.43
2018-12-05T02:18:58.578Z,8.50
2018-12-05T02:22:02.235Z,10.50
2018-12-05T02:25:06.357Z,11.77
2018-12-05T02:28:10.012Z,10.47
2018-12-05T02:31:13.684Z,11.93
2018-12-05T02:34:17.223Z,12.30
2018-12-05T02:37:20.738Z,11.73
2018-12-05T02:40:24.330Z,11.03
2018-12-05T02:43:27.927Z,12.20
2018-12-05T02:46:31.506Z,13.00
2018-12-05T02:49:35.144Z,11.47
2018-12-05T02:52:39.156Z,9.53
2018-12-05T02:55:42.737Z,9.30
2018-12-05T02:58:46.380Z,10.13
2018-12-05T03:01:49.898Z,9.17
2018-12-05T03:04:53.436Z,11.60
2018-12-05T03:07:57.255Z,9.30
2018-12-05T03:11:00.848Z,11.03
2018-12-05T03:14:04.501Z,9.70
2018-12-05T03:17:08.169Z,9.20
2018-12-05T03:20:11.711Z,10.27
2018-12-05T03:23:15.247Z,12.77
2018-12-05T03:26:18.859Z,10.10
2018-12-05T03:29:22.502Z,11.40
2018-12-05T03:32:26.088Z,10.97
2018-12-05T03:35:34.906Z,13.27
2018-12-05T03:38:38.501Z,10.70
2018-12-05T03:41:42.035Z,11.17
2018-12-05T03:44:45.660Z,13.60
2018-12-05T03:47:49.371Z,14.10
2018-12-05T03:50:53.055Z,13.73
2018-12-05T03:53:56.648Z,11.17
2018-12-05T03:57:00.370Z,12.00
2018-12-05T04:00:04.152Z,12.70
2018-12-05T04:03:07.719Z,13.37
2018-12-05T04:06:11.304Z,12.67
2018-12-05T04:09:14.736Z,9.90
2018-12-05T04:12:18.249Z,11.57
2018-12-05T04:15:22.734Z,10.53
2018-12-05T04:18:26.309Z,10.60
2018-12-05T04:21:29.923Z,10.97
2018-12-05T04:24:33.517Z,13.93
2018-12-05T04:27:38.021Z,13.50
2018-12-05T04:30:42.601Z,14.13
2018-12-05T04:33:46.084Z,14.33
2018-12-05T04:36:49.659Z,13.80
2018-12-05T04:39:54.269Z,15.23
2018-12-05T04:42:58.061Z,13.60
2018-12-05T04:46:01.603Z,12.90
2018-12-05T04:49:05.431Z,12.33
2018-12-05T04:52:09.033Z,14.50
2018-12-05T04:55:12.617Z,15.77
2018-12-05T04:58:16.244Z,16.03
2018-12-05T05:01:19.809Z,16.30
2018-12-05T05:04:23.363Z,12.27
2018-12-05T05:07:26.928Z,15.30
2018-12-05T05:10:30.441Z,14.27
2018-12-05T05:13:34.017Z,13.90
2018-12-05T05:16:37.583Z,13.93
2018-12-05T05:19:42.338Z,11.17
2018-12-05T05:22:45.940Z,13.10
2018-12-05T05:25:50.551Z,12.63
2018-12-05T05:28:54.466Z,14.57
2018-12-05T05:31:58.058Z,13.53
2018-12-05T05:35:02.075Z,15.33
2018-12-05T05:38:05.801Z,11.53
2018-12-05T05:41:09.471Z,13.33
2018-12-05T05:44:13.013Z,11.80
2018-12-05T05:47:16.535Z,14.80
2018-12-05T05:50:20.746Z,12.47
2018-12-05T05:53:24.120Z,14.53
2018-12-05T05:56:28.713Z,11.43
2018-12-05T05:59:32.363Z,12.93
2018-12-05T06:02:36.047Z,14.93
2018-12-05T06:05:39.548Z,13.53
2018-12-05T06:08:43.014Z,14.73
2018-12-05T06:11:46.522Z,10.87
2018-12-05T06:14:50.121Z,12.67
2018-12-05T06:17:53.745Z,13.93
2018-12-05T06:21:01.275Z,12.03
2018-12-05T06:24:05.162Z,12.17
2018-12-05T06:27:08.751Z,12.20
2018-12-05T06:30:12.270Z,13.87
2018-12-05T06:33:15.888Z,14.30
2018-12-05T06:36:19.475Z,13.17
2018-12-05T06:39:23.176Z,13.37
2018-12-05T06:42:26.743Z,15.13
2018-12-05T06:45:30.356Z,12.03
2018-12-05T06:48:34.006Z,12.77
2018-12-05T06:51:37.525Z,10.00
2018-12-05T06:54:41.414Z,11.47
2018-12-05T06:57:45.023Z,11.13
2018-12-05T07:00:48.735Z,14.57
2018-12-05T07:03:52.167Z,12.70
2018-12-05T07:06:55.758Z,12.20
2018-12-05T07:09:59.206Z,12.63
2018-12-05T07:13:02.671Z,11.33
2018-12-05T07:16:06.253Z,10.23
2018-12-05T07:19:09.736Z,12.67
2018-12-05T07:22:13.336Z,11.87
2018-12-05T07:25:16.850Z,10.97
2018-12-05T07:28:20.322Z,13.20
2018-12-05T07:31:23.968Z,10.97
2018-12-05T07:34:27.694Z,13.83
2018-12-05T07:37:31.162Z,12.87
2018-12-05T07:40:34.726Z,13.00
2018-12-05T07:43:38.356Z,11.43
2018-12-05T07:46:41.869Z,13.07
2018-12-05T07:49:46.480Z,12.60
2018-12-05T07:52:50.225Z,12.63
2018-12-05T07:55:53.774Z,12.10
2018-12-05T07:58:57.480Z,11.97
2018-12-05T08:02:01.139Z,14.90
2018-12-05T08:05:04.790Z,11.13
2018-12-05T08:08:08.409Z,13.93
2018-12-05T08:11:11.944Z,14.87
2018-12-05T08:14:15.402Z,12.20
2018-12-05T08:17:19.244Z,13.00
2018-12-05T08:20:22.848Z,13.37
2018-12-05T08:23:26.476Z,11.87
2018-12-05T08:26:30.061Z,12.27
2018-12-05T08:29:33.952Z,11.80
2018-12-05T08:32:37.415Z,12.80
2018-12-05T08:35:40.885Z,10.43
2018-12-05T08:38:44.469Z,13.43
2018-12-05T08:41:48.075Z,12.87
2018-12-05T08:44:51.626Z,11.30
2018-12-05T08:47:55.193Z,10.23
2018-12-05T08:50:58.930Z,11.27
2018-12-05T08:54:02.544Z,11.23
2018-12-05T08:57:06.053Z,10.73
2018-12-05T09:00:09.768Z,11.13
2018-12-05T09:03:13.404Z,14.70
2018-12-05T09:06:17.003Z,15.83
2018-12-05T09:09:20.473Z,13.43
2018-12-05T09:12:24.051Z,13.90
2018-12-05T09:15:27.571Z,11.20
2018-12-05T09:18:31.036Z,14.10
2018-12-05T09:21:34.692Z,14.60
2018-12-05T09:24:38.239Z,13.20
2018-12-05T09:27:41.892Z,15.60
2018-12-05T09:30:45.495Z,12.27
2018-12-05T09:33:49.059Z,11.27
2018-12-05T09:36:52.735Z,13.13
2018-12-05T09:39:56.243Z,11.13
2018-12-05T09:42:59.868Z,11.63
2018-12-05T09:46:03.601Z,11.33
2018-12-05T09:49:07.413Z,12.00
2018-12-05T09:52:11.019Z,11.60
2018-12-05T09:55:14.642Z,13.17
2018-12-05T09:58:18.050Z,13.63
2018-12-05T10:01:21.584Z,11.50
2018-12-05T10:04:25.154Z,9.90
2018-12-05T10:07:28.677Z,10.50
2018-12-05T10:10:32.217Z,13.57
2018-12-05T10:13:35.681Z,11.07
2018-12-05T10:16:39.289Z,10.37
2018-12-05T10:19:42.735Z,15.13
2018-12-05T10:22:46.357Z,14.63
2018-12-05T10:25:49.990Z,11.97
2018-12-05T10:28:53.427Z,10.53
2018-12-05T10:31:56.938Z,10.40
2018-12-05T10:35:00.468Z,14.20
2018-12-05T10:38:04.149Z,9.60
2018-12-05T10:41:08.794Z,12.23
2018-12-05T10:44:12.511Z,10.07
2018-12-05T10:47:16.277Z,13.10
2018-12-05T10:50:19.931Z,10.83
2018-12-05T10:53:23.621Z,12.40
2018-12-05T10:56:27.236Z,12.50
2018-12-05T10:59:30.867Z,13.80
2018-12-05T11:02:40.881Z,11.13
2018-12-05T11:06:53.922Z,15.10
2018-12-05T11:10:02.967Z,11.17
2018-12-05T11:13:11.925Z,10.30
2018-12-05T11:16:20.764Z,12.63
2018-12-05T11:19:29.482Z,11.70
2018-12-05T11:22:38.336Z,12.47
2018-12-05T11:25:42.221Z,17.20
2018-12-05T11:28:46.185Z,12.93
2018-12-05T11:31:49.722Z,12.47
2018-12-05T11:34:53.327Z,13.33
2018-12-05T11:37:56.915Z,14.40
2018-12-05T11:41:00.549Z,13.73
2018-12-05T11:44:04.067Z,15.13
2018-12-05T11:47:07.779Z,17.23
2018-12-05T11:50:11.420Z,13.47
2018-12-05T11:53:14.932Z,23.13
2018-12-05T11:56:18.368Z,21.77
2018-12-05T11:59:23.034Z,13.83
2018-12-05T12:02:26.633Z,18.57
2018-12-05T12:05:30.330Z,22.70
2018-12-05T12:08:33.847Z,15.80
2018-12-05T12:11:37.577Z,17.77
2018-12-05T12:14:41.298Z,15.03
2018-12-05T12:17:44.780Z,17.73
2018-12-05T12:20:48.627Z,17.43
2018-12-05T12:24:01.292Z,13.57
2018-12-05T12:27:05.008Z,12.33
2018-12-05T12:30:15.707Z,12.90
2018-12-05T12:33:12.600Z,12.47
2018-12-05T12:36:16.099Z,13.17
2018-12-05T12:39:19.648Z,16.17
2018-12-05T12:42:23.678Z,13.37
2018-12-05T12:45:27.119Z,13.17
2018-12-05T12:48:30.865Z,14.07
2018-12-05T12:51:34.397Z,12.93
2018-12-05T12:54:38.145Z,13.00
2018-12-05T12:57:41.685Z,14.17
2018-12-05T13:00:45.283Z,12.73
2018-12-05T13:03:48.801Z,11.90
2018-12-05T13:06:52.279Z,16.50
2018-12-05T13:09:55.775Z,11.97
2018-12-05T13:12:59.252Z,14.10
2018-12-05T13:16:02.832Z,19.00
2018-12-05T13:19:06.393Z,15.53
2018-12-05T13:22:09.926Z,15.70
2018-12-05T13:25:13.525Z,16.67
2018-12-05T13:28:16.950Z,14.33
2018-12-05T13:31:20.570Z,15.23
2018-12-05T13:34:24.101Z,15.90
2018-12-05T13:37:27.761Z,14.27
2018-12-05T13:40:31.412Z,12.47
2018-12-05T13:43:35.603Z,13.83
2018-12-05T13:46:39.299Z,14.00
2018-12-05T13:49:42.958Z,18.97
2018-12-05T13:52:48.869Z,12.80
2018-12-05T13:55:52.362Z,15.20
2018-12-05T13:58:56.013Z,13.50
2018-12-05T14:01:59.636Z,15.40
2018-12-05T14:05:03.296Z,13.07
2018-12-05T14:08:06.843Z,15.73
2018-12-05T14:11:10.435Z,13.40
2018-12-05T14:14:14.046Z,11.47
2018-12-05T14:17:17.554Z,14.67
2018-12-05T14:20:21.083Z,14.87
2018-12-05T14:23:24.688Z,12.50
2018-12-05T14:26:28.303Z,14.67
2018-12-05T14:29:31.935Z,16.30
2018-12-05T14:32:35.520Z,16.53
2018-12-05T14:35:39.163Z,11.73
2018-12-05T14:38:42.677Z,14.23
2018-12-05T14:41:46.110Z,15.20
2018-12-05T14:44:49.839Z,15.00
2018-12-05T14:47:53.443Z,15.30
2018-12-05T14:50:57.029Z,13.60
2018-12-05T14:54:00.629Z,11.93
2018-12-05T14:57:04.343Z,11.27
2018-12-05T15:00:08.735Z,12.97
2018-12-05T15:03:12.444Z,13.47
2018-12-05T15:06:16.154Z,16.80
2018-12-05T15:09:19.733Z,14.50
2018-12-05T15:12:23.451Z,12.57
2018-12-05T15:15:26.913Z,15.27
2018-12-05T15:18:30.577Z,14.17
2018-12-05T15:21:34.160Z,14.10
2018-12-05T15:24:37.603Z,17.80
2018-12-05T15:27:41.178Z,14.63
2018-12-05T15:30:44.606Z,13.87
2018-12-05T15:33:48.144Z,15.07
2018-12-05T15:36:51.674Z,13.30
2018-12-05T15:39:55.234Z,13.73
2018-12-05T15:42:58.743Z,16.23
2018-12-05T15:46:02.313Z,19.07
2018-12-05T15:49:05.924Z,16.77
2018-12-05T15:52:12.245Z,13.07
2018-12-05T15:55:15.910Z,11.43
2018-12-05T15:58:20.845Z,14.43
2018-12-05T16:01:25.525Z,13.17
2018-12-05T16:04:29.102Z,12.17
2018-12-05T16:07:34.812Z,14.13
2018-12-05T16:10:38.859Z,14.03
2018-12-05T16:13:42.524Z,13.00
2018-12-05T16:16:46.219Z,11.10
2018-12-05T16:19:49.664Z,19.73
2018-12-05T16:22:54.092Z,13.20
2018-12-05T16:25:57.744Z,15.90
2018-12-05T16:29:02.098Z,13.63
2018-12-05T16:32:05.749Z,14.77
2018-12-05T16:35:09.362Z,16.20
2018-12-05T16:38:12.927Z,11.77
2018-12-05T16:41:16.560Z,13.23
2018-12-05T16:44:20.053Z,13.53
2018-12-05T16:47:23.467Z,13.80
2018-12-05T16:50:26.953Z,13.63
2018-12-05T16:53:30.337Z,13.90
2018-12-05T16:56:34.561Z,17.27
2018-12-05T16:59:38.276Z,13.10
2018-12-05T17:02:41.775Z,15.80
2018-12-05T17:05:45.376Z,15.63
2018-12-05T17:08:48.883Z,15.37
2018-12-05T17:11:52.491Z,13.80
2018-12-05T17:14:56.363Z,16.60
2018-12-05T17:17:59.973Z,13.87
2018-12-05T17:21:03.512Z,11.63
2018-12-05T17:24:07.290Z,13.40
2018-12-05T17:27:12.137Z,14.27
2018-12-05T17:30:15.727Z,14.53
2018-12-05T17:33:19.763Z,13.40
2018-12-05T17:36:23.373Z,17.27
2018-12-05T17:39:27.636Z,15.83
2018-12-05T17:42:31.953Z,15.17
2018-12-05T17:45:35.668Z,15.50
2018-12-05T17:48:39.305Z,15.53
2018-12-05T17:51:43.020Z,16.97
2018-12-05T17:54:47.944Z,16.80
2018-12-05T17:57:51.784Z,18.87
2018-12-05T18:00:55.410Z,21.57
2018-12-05T18:03:59.860Z,17.40
2018-12-05T18:07:03.584Z,18.47
2018-12-05T18:10:07.307Z,15.10
2018-12-05T18:13:10.911Z,17.67
2018-12-05T18:16:14.772Z,16.87
2018-12-05T18:19:18.716Z,18.03
2018-12-05T18:22:22.357Z,21.87
2018-12-05T18:25:27.439Z,16.33
2018-12-05T18:28:31.453Z,17.37
2018-12-05T18:31:35.265Z,18.17
2018-12-05T18:34:39.159Z,16.37
2018-12-05T18:37:43.456Z,16.23
2018-12-05T18:40:47.205Z,18.53
2018-12-05T18:43:51.130Z,16.50
2018-12-05T18:46:55.487Z,16.83
2018-12-05T18:49:59.357Z,17.87
2018-12-05T18:53:03.099Z,16.23
2018-12-05T18:56:06.867Z,16.63
2018-12-05T18:59:12.664Z,16.83
2018-12-05T19:02:17.523Z,16.67
2018-12-05T19:05:21.507Z,17.90
2018-12-05T19:08:25.221Z,16.43
2018-12-05T19:11:28.975Z,20.77
2018-12-05T19:14:38.268Z,15.93
2018-12-05T19:17:43.145Z,17.33
2018-12-05T19:20:46.934Z,18.53
2018-12-05T19:23:50.740Z,15.63
2018-12-05T19:26:56.878Z,18.60
2018-12-05T19:30:00.391Z,17.10
2018-12-05T19:33:03.962Z,20.97
2018-12-05T19:36:07.684Z,15.77
2018-12-05T19:39:11.207Z,14.80
2018-12-05T19:42:14.834Z,18.07
2018-12-05T19:45:19.388Z,16.73
2018-12-05T19:48:23.043Z,20.37
2018-12-05T19:51:26.649Z,15.87
2018-12-05T19:54:30.387Z,16.33
2018-12-05T19:57:33.959Z,15.37
2018-12-05T20:00:37.472Z,15.90
2018-12-05T20:03:40.984Z,17.57
2018-12-05T20:06:44.544Z,18.17
2018-12-05T20:09:48.178Z,15.43
2018-12-05T20:12:51.995Z,16.13
2018-12-05T20:15:56.634Z,16.90
2018-12-05T20:19:00.446Z,18.07
2018-12-05T20:22:04.253Z,16.10
2018-12-05T20:25:07.788Z,14.13
2018-12-05T20:28:11.606Z,15.90
2018-12-05T20:31:15.243Z,17.17
2018-12-05T20:34:18.674Z,18.00
2018-12-05T20:37:22.316Z,14.50
2018-12-05T20:40:25.939Z,17.23
2018-12-05T20:43:29.497Z,16.43
2018-12-05T20:46:33.049Z,15.67
2018-12-05T20:49:36.695Z,20.57
2018-12-05T20:52:40.207Z,15.40
2018-12-05T20:55:43.808Z,18.30
2018-12-05T20:58:47.268Z,17.90
2018-12-05T21:01:50.836Z,15.00
2018-12-05T21:04:55.918Z,15.43
2018-12-05T21:07:58.061Z,16.57
2018-12-05T21:11:01.691Z,17.63
2018-12-05T21:14:05.287Z,17.27
2018-12-05T21:17:08.789Z,15.73
2018-12-05T21:20:12.491Z,15.77
2018-12-05T21:23:16.421Z,16.63
2018-12-05T21:26:20.115Z,18.10
2018-12-05T21:29:23.659Z,15.87
2018-12-05T21:32:27.234Z,17.37
2018-12-05T21:35:31.941Z,16.37
2018-12-05T21:38:35.495Z,17.27
2018-12-05T21:41:39.307Z,15.60
2018-12-05T21:44:42.914Z,18.53
2018-12-05T21:47:46.588Z,17.57
2018-12-05T21:50:50.407Z,14.67
2018-12-05T21:53:54.043Z,16.33
2018-12-05T21:56:57.544Z,14.10
2018-12-05T22:00:01.388Z,15.97
2018-12-05T22:03:05.518Z,15.50
2018-12-05T22:06:09.205Z,15.20
2018-12-05T22:09:12.752Z,16.93
2018-12-05T22:12:17.333Z,15.10
2018-12-05T22:15:21.080Z,15.70
2018-12-05T22:18:24.695Z,16.47
2018-12-05T22:21:28.349Z,16.63
2018-12-05T22:24:32.017Z,17.40
2018-12-05T22:27:35.643Z,17.00
2018-12-05T22:30:39.248Z,15.80
2018-12-05T22:33:42.846Z,16.83
2018-12-05T22:36:46.405Z,14.90
2018-12-05T22:39:49.902Z,14.50
2018-12-05T22:42:53.431Z,15.00
2018-12-05T22:45:57.059Z,17.07
2018-12-05T22:49:00.662Z,15.97
2018-12-05T22:52:04.347Z,14.37
2018-12-05T22:55:07.965Z,16.27
2018-12-05T22:58:11.497Z,19.63
2018-12-05T23:01:15.217Z,17.77
2018-12-05T23:04:18.801Z,16.87
2018-12-05T23:07:22.321Z,14.00
2018-12-05T23:10:25.886Z,14.43
2018-12-05T23:13:29.388Z,18.83
2018-12-05T23:16:33.026Z,16.10
2018-12-05T23:19:36.667Z,15.97
2018-12-05T23:22:40.207Z,14.47
2018-12-05T23:25:43.706Z,15.60
2018-12-05T23:28:47.115Z,16.13
2018-12-05T23:31:50.766Z,16.90
2018-12-05T23:34:54.324Z,14.97
2018-12-05T23:37:58.067Z,15.67
2018-12-05T23:41:01.642Z,17.33
2018-12-05T23:44:05.193Z,16.03
2018-12-05T23:47:09.230Z,17.40
2018-12-05T23:50:12.919Z,16.20
2018-12-05T23:53:16.495Z,19.20
2018-12-05T23:56:20.105Z,16.53
2018-12-05T23:59:23.710Z,16.80
